Huvudsida
METAR-TAF:

METAR-TAF

Flygplatser :

Pilanesberg International Airport

Sun City, Sydafrika

latitud: 25-20-01S, longitud: 027-10-24E, höjd: 1040 m

Aktuellt väderrapport

Denna rapport gjordes för 49 minuter sedan, klockan 22:00 UTC
Vind 1 kt från väst
Temperatur 8°C
Fuktighet 76%
Tryck 1025 hPa

METAR: FAPN 252200Z AUTO 26001KT //// // ////// 08/04 Q1025

Tid: 00:49 (22:49 UTC)


TAF: saknas

Aktuella väderrapporter och prognoser från 4000 flygplatser (METAR- och TAF-rapporter).

De tillgängliga stationerna syns som gula och röda prickar på kartan.

För musen över prickarna för att se namnen på stationerna.

Klicka sedan för att få väderrapporter och prognoser.

För att ändra kartan: Klicka på de gröna knapparna med ett svart kors på för att zooma in; den gröna knappen med ett streck på för att zooma ut; eller på de gröna pilarna för angränsande kartor.


METAR-TAF: